sensor_id;sensor_type;location;lat;lon;timestamp;temperature;humidity
3564;DHT22;1796;52.388;13.096;2023-04-08T00:01:39;4.80;99.90
3564;DHT22;1796;52.388;13.096;2023-04-08T00:04:05;4.80;99.90
3564;DHT22;1796;52.388;13.096;2023-04-08T00:06:34;4.90;99.90
3564;DHT22;1796;52.388;13.096;2023-04-08T00:09:01;4.90;99.90
3564;DHT22;1796;52.388;13.096;2023-04-08T00:11:28;4.90;99.90
3564;DHT22;1796;52.388;13.096;2023-04-08T00:13:55;4.90;99.90
3564;DHT22;1796;52.388;13.096;2023-04-08T00:16:22;4.90;99.90
3564;DHT22;1796;52.388;13.096;2023-04-08T00:18:50;4.90;99.90
3564;DHT22;1796;52.388;13.096;2023-04-08T00:21:17;4.80;99.90
3564;DHT22;1796;52.388;13.096;2023-04-08T00:23:45;4.80;99.90
3564;DHT22;1796;52.388;13.096;2023-04-08T00:26:12;4.80;99.90
3564;DHT22;1796;52.388;13.096;2023-04-08T00:28:39;4.90;99.90
3564;DHT22;1796;52.388;13.096;2023-04-08T00:31:05;4.90;99.90
3564;DHT22;1796;52.388;13.096;2023-04-08T00:33:32;4.90;99.90
3564;DHT22;1796;52.388;13.096;2023-04-08T00:36:00;4.90;99.90
3564;DHT22;1796;52.388;13.096;2023-04-08T00:38:27;4.90;99.90
3564;DHT22;1796;52.388;13.096;2023-04-08T00:40:55;4.90;99.90
3564;DHT22;1796;52.388;13.096;2023-04-08T00:43:22;4.90;99.90
3564;DHT22;1796;52.388;13.096;2023-04-08T00:45:49;5.00;99.90
3564;DHT22;1796;52.388;13.096;2023-04-08T00:48:16;5.00;99.90
3564;DHT22;1796;52.388;13.096;2023-04-08T00:50:43;5.00;99.90
3564;DHT22;1796;52.388;13.096;2023-04-08T00:53:15;4.90;99.90
3564;DHT22;1796;52.388;13.096;2023-04-08T00:55:43;4.90;99.90
3564;DHT22;1796;52.388;13.096;2023-04-08T00:58:10;4.90;99.90
3564;DHT22;1796;52.388;13.096;2023-04-08T01:00:39;4.90;99.90
3564;DHT22;1796;52.388;13.096;2023-04-08T01:03:15;4.90;99.90
3564;DHT22;1796;52.388;13.096;2023-04-08T01:05:52;4.90;99.90
3564;DHT22;1796;52.388;13.096;2023-04-08T01:08:26;5.00;99.90
3564;DHT22;1796;52.388;13.096;2023-04-08T01:10:58;4.90;99.90
3564;DHT22;1796;52.388;13.096;2023-04-08T01:13:30;5.00;99.90
3564;DHT22;1796;52.388;13.096;2023-04-08T01:15:57;5.00;99.90
3564;DHT22;1796;52.388;13.096;2023-04-08T01:18:25;4.90;99.90
3564;DHT22;1796;52.388;13.096;2023-04-08T01:20:53;4.90;99.90
3564;DHT22;1796;52.388;13.096;2023-04-08T01:23:27;5.00;99.90
3564;DHT22;1796;52.388;13.096;2023-04-08T01:25:57;5.00;99.90
3564;DHT22;1796;52.388;13.096;2023-04-08T01:28:27;5.00;99.90
3564;DHT22;1796;52.388;13.096;2023-04-08T01:30:56;5.00;99.90
3564;DHT22;1796;52.388;13.096;2023-04-08T01:33:25;5.00;99.90
3564;DHT22;1796;52.388;13.096;2023-04-08T01:35:54;5.00;99.90
3564;DHT22;1796;52.388;13.096;2023-04-08T01:38:23;5.00;99.90
3564;DHT22;1796;52.388;13.096;2023-04-08T01:40:52;4.90;99.90
3564;DHT22;1796;52.388;13.096;2023-04-08T01:43:22;4.90;99.90
3564;DHT22;1796;52.388;13.096;2023-04-08T01:45:50;4.90;99.90
3564;DHT22;1796;52.388;13.096;2023-04-08T01:48:23;5.00;99.90
3564;DHT22;1796;52.388;13.096;2023-04-08T01:50:50;4.90;99.90
3564;DHT22;1796;52.388;13.096;2023-04-08T01:53:17;4.90;99.90
3564;DHT22;1796;52.388;13.096;2023-04-08T01:55:44;4.90;99.90
3564;DHT22;1796;52.388;13.096;2023-04-08T01:58:19;5.00;99.90
3564;DHT22;1796;52.388;13.096;2023-04-08T02:00:48;4.90;99.90
3564;DHT22;1796;52.388;13.096;2023-04-08T02:03:17;4.90;99.90
3564;DHT22;1796;52.388;13.096;2023-04-08T02:05:45;5.00;99.90
3564;DHT22;1796;52.388;13.096;2023-04-08T02:08:12;4.90;99.90
3564;DHT22;1796;52.388;13.096;2023-04-08T02:10:39;4.90;99.90
3564;DHT22;1796;52.388;13.096;2023-04-08T02:13:07;4.90;99.90
3564;DHT22;1796;52.388;13.096;2023-04-08T02:15:35;5.00;99.90
3564;DHT22;1796;52.388;13.096;2023-04-08T02:18:10;4.90;99.90
3564;DHT22;1796;52.388;13.096;2023-04-08T02:20:43;4.90;99.90
3564;DHT22;1796;52.388;13.096;2023-04-08T02:23:13;4.90;99.90
3564;DHT22;1796;52.388;13.096;2023-04-08T02:25:43;5.00;99.90
3564;DHT22;1796;52.388;13.096;2023-04-08T02:28:11;5.00;99.90
3564;DHT22;1796;52.388;13.096;2023-04-08T02:30:42;5.00;99.90
3564;DHT22;1796;52.388;13.096;2023-04-08T02:33:11;5.00;99.90
3564;DHT22;1796;52.388;13.096;2023-04-08T02:35:39;5.00;99.90
3564;DHT22;1796;52.388;13.096;2023-04-08T02:38:07;5.00;99.90
3564;DHT22;1796;52.388;13.096;2023-04-08T02:40:34;5.10;99.90
3564;DHT22;1796;52.388;13.096;2023-04-08T02:43:01;5.00;99.90
3564;DHT22;1796;52.388;13.096;2023-04-08T02:45:30;5.00;99.90
3564;DHT22;1796;52.388;13.096;2023-04-08T02:47:58;5.00;99.90
3564;DHT22;1796;52.388;13.096;2023-04-08T02:50:26;5.00;99.90
3564;DHT22;1796;52.388;13.096;2023-04-08T02:52:53;5.00;99.90
3564;DHT22;1796;52.388;13.096;2023-04-08T02:55:20;5.00;99.90
3564;DHT22;1796;52.388;13.096;2023-04-08T02:57:47;5.10;99.90
3564;DHT22;1796;52.388;13.096;2023-04-08T03:00:15;5.00;99.90
3564;DHT22;1796;52.388;13.096;2023-04-08T03:02:42;5.00;99.90
3564;DHT22;1796;52.388;13.096;2023-04-08T03:05:09;5.00;99.90
3564;DHT22;1796;52.388;13.096;2023-04-08T03:07:37;5.00;99.90
3564;DHT22;1796;52.388;13.096;2023-04-08T03:10:06;5.00;99.90
3564;DHT22;1796;52.388;13.096;2023-04-08T03:12:33;5.00;99.90
3564;DHT22;1796;52.388;13.096;2023-04-08T03:14:59;5.00;99.90
3564;DHT22;1796;52.388;13.096;2023-04-08T03:17:28;5.10;99.90
3564;DHT22;1796;52.388;13.096;2023-04-08T03:19:57;5.10;99.90
3564;DHT22;1796;52.388;13.096;2023-04-08T03:22:23;5.00;99.90
3564;DHT22;1796;52.388;13.096;2023-04-08T03:24:52;5.00;99.90
3564;DHT22;1796;52.388;13.096;2023-04-08T03:27:18;5.10;99.90
3564;DHT22;1796;52.388;13.096;2023-04-08T03:29:45;5.20;99.90
3564;DHT22;1796;52.388;13.096;2023-04-08T03:32:12;5.20;99.90
3564;DHT22;1796;52.388;13.096;2023-04-08T03:34:39;5.20;99.90
3564;DHT22;1796;52.388;13.096;2023-04-08T03:37:06;5.10;99.90
3564;DHT22;1796;52.388;13.096;2023-04-08T03:39:33;5.20;99.90
3564;DHT22;1796;52.388;13.096;2023-04-08T03:42:01;5.10;99.90
3564;DHT22;1796;52.388;13.096;2023-04-08T03:44:28;5.10;99.90
3564;DHT22;1796;52.388;13.096;2023-04-08T03:46:55;5.10;99.90
3564;DHT22;1796;52.388;13.096;2023-04-08T03:49:22;5.20;99.90
3564;DHT22;1796;52.388;13.096;2023-04-08T03:51:49;5.20;99.90
3564;DHT22;1796;52.388;13.096;2023-04-08T03:54:18;5.20;99.90
3564;DHT22;1796;52.388;13.096;2023-04-08T03:56:45;5.20;99.90
3564;DHT22;1796;52.388;13.096;2023-04-08T03:59:13;5.20;99.90
3564;DHT22;1796;52.388;13.096;2023-04-08T04:01:40;5.20;99.90
3564;DHT22;1796;52.388;13.096;2023-04-08T04:04:07;5.20;99.90
3564;DHT22;1796;52.388;13.096;2023-04-08T04:06:34;5.20;99.90
3564;DHT22;1796;52.388;13.096;2023-04-08T04:09:01;5.10;99.90
3564;DHT22;1796;52.388;13.096;2023-04-08T04:11:27;5.20;99.90
3564;DHT22;1796;52.388;13.096;2023-04-08T04:13:54;5.20;99.90
3564;DHT22;1796;52.388;13.096;2023-04-08T04:16:22;5.20;99.90
3564;DHT22;1796;52.388;13.096;2023-04-08T04:18:51;5.20;99.90
3564;DHT22;1796;52.388;13.096;2023-04-08T04:21:18;5.20;99.90
3564;DHT22;1796;52.388;13.096;2023-04-08T04:23:44;5.20;99.90
3564;DHT22;1796;52.388;13.096;2023-04-08T04:26:12;5.10;99.90
3564;DHT22;1796;52.388;13.096;2023-04-08T04:28:39;5.20;99.90
3564;DHT22;1796;52.388;13.096;2023-04-08T04:31:06;5.20;99.90
3564;DHT22;1796;52.388;13.096;2023-04-08T04:33:34;5.20;99.90
3564;DHT22;1796;52.388;13.096;2023-04-08T04:36:01;5.20;99.90
3564;DHT22;1796;52.388;13.096;2023-04-08T04:38:28;5.20;99.90
3564;DHT22;1796;52.388;13.096;2023-04-08T04:40:55;5.20;99.90
3564;DHT22;1796;52.388;13.096;2023-04-08T04:43:22;5.20;99.90
3564;DHT22;1796;52.388;13.096;2023-04-08T04:45:49;5.20;99.90
3564;DHT22;1796;52.388;13.096;2023-04-08T04:48:16;5.30;99.90
3564;DHT22;1796;52.388;13.096;2023-04-08T04:50:44;5.30;99.90
3564;DHT22;1796;52.388;13.096;2023-04-08T04:53:11;5.30;99.90
3564;DHT22;1796;52.388;13.096;2023-04-08T04:55:37;5.30;99.90
3564;DHT22;1796;52.388;13.096;2023-04-08T04:58:04;5.30;99.90
3564;DHT22;1796;52.388;13.096;2023-04-08T05:00:31;5.20;99.90
3564;DHT22;1796;52.388;13.096;2023-04-08T05:02:58;5.30;99.90
3564;DHT22;1796;52.388;13.096;2023-04-08T05:05:25;5.30;99.90
3564;DHT22;1796;52.388;13.096;2023-04-08T05:07:53;5.30;99.90
3564;DHT22;1796;52.388;13.096;2023-04-08T05:10:20;5.30;99.90
3564;DHT22;1796;52.388;13.096;2023-04-08T05:12:47;5.40;99.90
3564;DHT22;1796;52.388;13.096;2023-04-08T05:15:14;5.40;99.90
3564;DHT22;1796;52.388;13.096;2023-04-08T05:17:40;5.40;99.90
3564;DHT22;1796;52.388;13.096;2023-04-08T05:20:08;5.40;99.90
3564;DHT22;1796;52.388;13.096;2023-04-08T05:22:35;5.50;99.90
3564;DHT22;1796;52.388;13.096;2023-04-08T05:25:03;5.50;99.90
3564;DHT22;1796;52.388;13.096;2023-04-08T05:27:30;5.50;99.90
3564;DHT22;1796;52.388;13.096;2023-04-08T05:29:57;5.50;99.90
3564;DHT22;1796;52.388;13.096;2023-04-08T05:32:24;5.50;99.90
3564;DHT22;1796;52.388;13.096;2023-04-08T05:34:50;5.50;99.90
3564;DHT22;1796;52.388;13.096;2023-04-08T05:37:17;5.50;99.90
3564;DHT22;1796;52.388;13.096;2023-04-08T05:39:44;5.50;99.90
3564;DHT22;1796;52.388;13.096;2023-04-08T05:42:12;5.50;99.90
3564;DHT22;1796;52.388;13.096;2023-04-08T05:44:39;5.50;99.90
3564;DHT22;1796;52.388;13.096;2023-04-08T05:47:08;5.50;99.90
3564;DHT22;1796;52.388;13.096;2023-04-08T05:49:35;5.60;99.90
3564;DHT22;1796;52.388;13.096;2023-04-08T05:52:02;5.50;99.90
3564;DHT22;1796;52.388;13.096;2023-04-08T05:54:28;5.50;99.90
3564;DHT22;1796;52.388;13.096;2023-04-08T05:56:55;5.60;99.90
3564;DHT22;1796;52.388;13.096;2023-04-08T05:59:24;5.60;99.90
3564;DHT22;1796;52.388;13.096;2023-04-08T06:01:50;5.70;99.90
3564;DHT22;1796;52.388;13.096;2023-04-08T06:04:19;5.70;99.90
3564;DHT22;1796;52.388;13.096;2023-04-08T06:06:45;5.80;99.90
3564;DHT22;1796;52.388;13.096;2023-04-08T06:09:12;5.90;99.90
3564;DHT22;1796;52.388;13.096;2023-04-08T06:11:39;5.90;99.90
3564;DHT22;1796;52.388;13.096;2023-04-08T06:14:06;6.00;99.90
3564;DHT22;1796;52.388;13.096;2023-04-08T06:16:34;6.00;99.90
3564;DHT22;1796;52.388;13.096;2023-04-08T06:19:01;6.00;99.90
3564;DHT22;1796;52.388;13.096;2023-04-08T06:21:27;6.00;99.90
3564;DHT22;1796;52.388;13.096;2023-04-08T06:23:54;6.00;99.90
3564;DHT22;1796;52.388;13.096;2023-04-08T06:26:21;6.00;99.90
3564;DHT22;1796;52.388;13.096;2023-04-08T06:28:48;6.10;99.90
3564;DHT22;1796;52.388;13.096;2023-04-08T06:31:15;6.20;99.90
3564;DHT22;1796;52.388;13.096;2023-04-08T06:33:43;6.20;99.90
3564;DHT22;1796;52.388;13.096;2023-04-08T06:36:10;6.20;99.90
3564;DHT22;1796;52.388;13.096;2023-04-08T06:38:37;6.20;99.90
3564;DHT22;1796;52.388;13.096;2023-04-08T06:41:05;6.30;99.90
3564;DHT22;1796;52.388;13.096;2023-04-08T06:43:32;6.40;99.90
3564;DHT22;1796;52.388;13.096;2023-04-08T06:45:59;6.60;99.90
3564;DHT22;1796;52.388;13.096;2023-04-08T06:48:26;6.60;99.90
3564;DHT22;1796;52.388;13.096;2023-04-08T06:50:56;6.60;99.90
3564;DHT22;1796;52.388;13.096;2023-04-08T06:53:23;6.60;99.90
3564;DHT22;1796;52.388;13.096;2023-04-08T06:55:50;6.60;99.90
3564;DHT22;1796;52.388;13.096;2023-04-08T06:58:17;6.80;99.90
3564;DHT22;1796;52.388;13.096;2023-04-08T07:00:44;6.90;99.90
3564;DHT22;1796;52.388;13.096;2023-04-08T07:03:10;6.90;99.90
3564;DHT22;1796;52.388;13.096;2023-04-08T07:05:37;7.00;99.90
3564;DHT22;1796;52.388;13.096;2023-04-08T07:08:06;6.70;99.90
3564;DHT22;1796;52.388;13.096;2023-04-08T07:10:34;6.80;99.90
3564;DHT22;1796;52.388;13.096;2023-04-08T07:13:00;6.90;99.90
3564;DHT22;1796;52.388;13.096;2023-04-08T07:15:27;6.90;99.90
3564;DHT22;1796;52.388;13.096;2023-04-08T07:17:54;6.80;99.90
3564;DHT22;1796;52.388;13.096;2023-04-08T07:20:21;6.80;99.90
3564;DHT22;1796;52.388;13.096;2023-04-08T07:22:48;6.90;99.90
3564;DHT22;1796;52.388;13.096;2023-04-08T07:25:17;6.90;99.90
3564;DHT22;1796;52.388;13.096;2023-04-08T07:27:44;6.90;99.90
3564;DHT22;1796;52.388;13.096;2023-04-08T07:30:11;7.10;99.90
3564;DHT22;1796;52.388;13.096;2023-04-08T07:32:38;7.30;99.90
3564;DHT22;1796;52.388;13.096;2023-04-08T07:35:05;7.40;99.90
3564;DHT22;1796;52.388;13.096;2023-04-08T07:37:32;7.70;99.90
3564;DHT22;1796;52.388;13.096;2023-04-08T07:39:59;7.90;99.90
3564;DHT22;1796;52.388;13.096;2023-04-08T07:42:27;7.90;99.90
3564;DHT22;1796;52.388;13.096;2023-04-08T07:44:54;8.30;99.90
3564;DHT22;1796;52.388;13.096;2023-04-08T07:47:21;8.50;99.90
3564;DHT22;1796;52.388;13.096;2023-04-08T07:49:48;8.50;99.90
3564;DHT22;1796;52.388;13.096;2023-04-08T07:52:15;8.40;99.90
3564;DHT22;1796;52.388;13.096;2023-04-08T07:54:42;8.40;99.90
3564;DHT22;1796;52.388;13.096;2023-04-08T07:57:09;8.40;99.90
3564;DHT22;1796;52.388;13.096;2023-04-08T07:59:37;8.20;99.90
3564;DHT22;1796;52.388;13.096;2023-04-08T08:02:04;8.20;99.90
3564;DHT22;1796;52.388;13.096;2023-04-08T08:04:30;8.20;99.90
3564;DHT22;1796;52.388;13.096;2023-04-08T08:06:58;8.20;99.90
3564;DHT22;1796;52.388;13.096;2023-04-08T08:09:24;8.20;99.90
3564;DHT22;1796;52.388;13.096;2023-04-08T08:11:51;8.10;99.90
3564;DHT22;1796;52.388;13.096;2023-04-08T08:14:18;8.00;99.90
3564;DHT22;1796;52.388;13.096;2023-04-08T08:16:47;7.90;99.90
3564;DHT22;1796;52.388;13.096;2023-04-08T08:19:14;7.90;99.90
3564;DHT22;1796;52.388;13.096;2023-04-08T08:21:41;8.20;99.90
3564;DHT22;1796;52.388;13.096;2023-04-08T08:24:08;8.30;99.90
3564;DHT22;1796;52.388;13.096;2023-04-08T08:26:35;8.30;99.90
3564;DHT22;1796;52.388;13.096;2023-04-08T08:29:02;8.50;99.90
3564;DHT22;1796;52.388;13.096;2023-04-08T08:31:29;8.60;99.90
3564;DHT22;1796;52.388;13.096;2023-04-08T08:33:57;8.40;99.90
3564;DHT22;1796;52.388;13.096;2023-04-08T08:36:24;8.70;99.90
3564;DHT22;1796;52.388;13.096;2023-04-08T08:38:52;8.80;99.90
3564;DHT22;1796;52.388;13.096;2023-04-08T08:41:18;8.80;99.90
3564;DHT22;1796;52.388;13.096;2023-04-08T08:43:46;9.10;99.90
3564;DHT22;1796;52.388;13.096;2023-04-08T08:46:15;9.00;99.90
3564;DHT22;1796;52.388;13.096;2023-04-08T08:48:43;9.00;99.90
3564;DHT22;1796;52.388;13.096;2023-04-08T08:51:12;8.80;99.90
3564;DHT22;1796;52.388;13.096;2023-04-08T08:53:39;8.90;99.90
3564;DHT22;1796;52.388;13.096;2023-04-08T08:56:09;9.00;99.90
3564;DHT22;1796;52.388;13.096;2023-04-08T08:58:37;9.10;99.90
3564;DHT22;1796;52.388;13.096;2023-04-08T09:01:31;9.30;99.90
3564;DHT22;1796;52.388;13.096;2023-04-08T09:04:10;9.50;99.90
3564;DHT22;1796;52.388;13.096;2023-04-08T09:06:38;9.80;99.90
3564;DHT22;1796;52.388;13.096;2023-04-08T09:09:05;9.60;99.90
3564;DHT22;1796;52.388;13.096;2023-04-08T09:11:35;9.70;99.90
3564;DHT22;1796;52.388;13.096;2023-04-08T09:14:01;9.70;99.90
3564;DHT22;1796;52.388;13.096;2023-04-08T09:16:29;9.80;99.90
3564;DHT22;1796;52.388;13.096;2023-04-08T09:19:07;9.80;99.90
3564;DHT22;1796;52.388;13.096;2023-04-08T09:21:35;9.60;99.90
3564;DHT22;1796;52.388;13.096;2023-04-08T09:24:03;9.30;99.90
3564;DHT22;1796;52.388;13.096;2023-04-08T09:26:30;9.70;99.90
3564;DHT22;1796;52.388;13.096;2023-04-08T09:28:58;9.60;99.90
3564;DHT22;1796;52.388;13.096;2023-04-08T09:31:27;9.50;99.90
3564;DHT22;1796;52.388;13.096;2023-04-08T09:33:58;9.50;99.90
3564;DHT22;1796;52.388;13.096;2023-04-08T09:36:28;9.40;99.90
3564;DHT22;1796;52.388;13.096;2023-04-08T09:38:55;9.10;99.90
3564;DHT22;1796;52.388;13.096;2023-04-08T09:41:25;8.90;99.90
3564;DHT22;1796;52.388;13.096;2023-04-08T09:43:54;8.90;99.90
3564;DHT22;1796;52.388;13.096;2023-04-08T09:46:25;8.80;99.90
3564;DHT22;1796;52.388;13.096;2023-04-08T09:49:00;9.00;99.90
3564;DHT22;1796;52.388;13.096;2023-04-08T09:51:32;9.30;99.90
3564;DHT22;1796;52.388;13.096;2023-04-08T09:54:05;9.50;99.90
3564;DHT22;1796;52.388;13.096;2023-04-08T09:56:40;9.50;99.90
3564;DHT22;1796;52.388;13.096;2023-04-08T09:59:11;9.80;99.90
3564;DHT22;1796;52.388;13.096;2023-04-08T10:01:43;9.70;99.90
3564;DHT22;1796;52.388;13.096;2023-04-08T10:04:14;9.30;99.90
3564;DHT22;1796;52.388;13.096;2023-04-08T10:06:41;9.20;99.90
3564;DHT22;1796;52.388;13.096;2023-04-08T10:09:09;9.20;99.90
3564;DHT22;1796;52.388;13.096;2023-04-08T10:11:38;9.20;99.90
3564;DHT22;1796;52.388;13.096;2023-04-08T10:14:05;9.10;99.90
3564;DHT22;1796;52.388;13.096;2023-04-08T10:16:34;9.00;99.90
3564;DHT22;1796;52.388;13.096;2023-04-08T10:19:01;9.00;99.90
3564;DHT22;1796;52.388;13.096;2023-04-08T10:21:36;9.10;99.90
3564;DHT22;1796;52.388;13.096;2023-04-08T10:24:08;8.90;99.90
3564;DHT22;1796;52.388;13.096;2023-04-08T10:26:38;9.00;99.90
3564;DHT22;1796;52.388;13.096;2023-04-08T10:29:38;9.00;99.90
3564;DHT22;1796;52.388;13.096;2023-04-08T10:32:05;9.00;99.90
3564;DHT22;1796;52.388;13.096;2023-04-08T10:34:32;8.90;99.90
3564;DHT22;1796;52.388;13.096;2023-04-08T10:36:59;9.00;99.90
3564;DHT22;1796;52.388;13.096;2023-04-08T10:39:26;9.20;99.90
3564;DHT22;1796;52.388;13.096;2023-04-08T10:41:55;9.40;99.90
3564;DHT22;1796;52.388;13.096;2023-04-08T10:44:23;9.60;99.90
3564;DHT22;1796;52.388;13.096;2023-04-08T10:46:51;9.70;99.90
3564;DHT22;1796;52.388;13.096;2023-04-08T10:49:18;9.70;99.90
3564;DHT22;1796;52.388;13.096;2023-04-08T10:51:46;10.00;99.90
3564;DHT22;1796;52.388;13.096;2023-04-08T10:54:15;10.20;99.90
3564;DHT22;1796;52.388;13.096;2023-04-08T10:56:47;10.10;99.90
3564;DHT22;1796;52.388;13.096;2023-04-08T10:59:20;10.40;99.90
3564;DHT22;1796;52.388;13.096;2023-04-08T11:01:52;10.20;99.90
3564;DHT22;1796;52.388;13.096;2023-04-08T11:04:19;10.50;99.90
3564;DHT22;1796;52.388;13.096;2023-04-08T11:06:48;10.70;99.90
3564;DHT22;1796;52.388;13.096;2023-04-08T11:09:16;10.30;99.90
3564;DHT22;1796;52.388;13.096;2023-04-08T11:11:44;10.50;99.90
3564;DHT22;1796;52.388;13.096;2023-04-08T11:14:11;10.70;99.90
3564;DHT22;1796;52.388;13.096;2023-04-08T11:16:39;11.00;99.90
3564;DHT22;1796;52.388;13.096;2023-04-08T11:19:07;11.50;99.90
3564;DHT22;1796;52.388;13.096;2023-04-08T11:21:35;11.60;99.90
3564;DHT22;1796;52.388;13.096;2023-04-08T11:24:08;11.60;99.90
3564;DHT22;1796;52.388;13.096;2023-04-08T11:26:37;11.40;99.90
3564;DHT22;1796;52.388;13.096;2023-04-08T11:29:05;11.40;99.90
3564;DHT22;1796;52.388;13.096;2023-04-08T11:31:32;11.50;99.90
3564;DHT22;1796;52.388;13.096;2023-04-08T11:34:00;11.20;99.90
3564;DHT22;1796;52.388;13.096;2023-04-08T11:36:28;11.30;99.90
3564;DHT22;1796;52.388;13.096;2023-04-08T11:38:55;11.10;99.90
3564;DHT22;1796;52.388;13.096;2023-04-08T11:41:22;11.00;99.90
3564;DHT22;1796;52.388;13.096;2023-04-08T11:43:55;10.60;99.90
3564;DHT22;1796;52.388;13.096;2023-04-08T11:46:23;10.30;99.90
3564;DHT22;1796;52.388;13.096;2023-04-08T11:48:57;10.50;99.90
3564;DHT22;1796;52.388;13.096;2023-04-08T11:51:25;10.80;99.90
3564;DHT22;1796;52.388;13.096;2023-04-08T11:53:53;10.90;99.90
3564;DHT22;1796;52.388;13.096;2023-04-08T11:56:21;11.10;99.90
3564;DHT22;1796;52.388;13.096;2023-04-08T11:58:49;11.30;99.90
3564;DHT22;1796;52.388;13.096;2023-04-08T12:01:16;11.40;99.90
3564;DHT22;1796;52.388;13.096;2023-04-08T12:03:57;11.70;99.90
3564;DHT22;1796;52.388;13.096;2023-04-08T12:06:25;11.30;99.90
3564;DHT22;1796;52.388;13.096;2023-04-08T12:08:53;11.30;99.90
3564;DHT22;1796;52.388;13.096;2023-04-08T12:11:20;11.10;99.90
3564;DHT22;1796;52.388;13.096;2023-04-08T12:13:47;10.80;99.90
3564;DHT22;1796;52.388;13.096;2023-04-08T12:16:15;10.60;99.90
3564;DHT22;1796;52.388;13.096;2023-04-08T12:18:42;10.90;99.90
3564;DHT22;1796;52.388;13.096;2023-04-08T12:21:09;11.00;99.90
3564;DHT22;1796;52.388;13.096;2023-04-08T12:23:45;11.20;99.90
3564;DHT22;1796;52.388;13.096;2023-04-08T12:26:12;11.40;99.90
3564;DHT22;1796;52.388;13.096;2023-04-08T12:28:39;11.30;99.90
3564;DHT22;1796;52.388;13.096;2023-04-08T12:31:06;11.60;99.90
3564;DHT22;1796;52.388;13.096;2023-04-08T12:33:33;11.70;99.90
3564;DHT22;1796;52.388;13.096;2023-04-08T12:36:00;11.50;99.90
3564;DHT22;1796;52.388;13.096;2023-04-08T12:38:27;11.60;99.90
3564;DHT22;1796;52.388;13.096;2023-04-08T12:40:55;11.70;99.90
3564;DHT22;1796;52.388;13.096;2023-04-08T12:43:22;11.60;99.90
3564;DHT22;1796;52.388;13.096;2023-04-08T12:45:49;11.60;99.90
3564;DHT22;1796;52.388;13.096;2023-04-08T12:48:16;11.80;99.90
3564;DHT22;1796;52.388;13.096;2023-04-08T12:50:43;11.80;99.90
3564;DHT22;1796;52.388;13.096;2023-04-08T12:53:10;11.60;99.90
3564;DHT22;1796;52.388;13.096;2023-04-08T12:55:37;11.80;99.90
3564;DHT22;1796;52.388;13.096;2023-04-08T12:58:05;12.10;99.90
3564;DHT22;1796;52.388;13.096;2023-04-08T13:00:31;12.00;99.90
3564;DHT22;1796;52.388;13.096;2023-04-08T13:02:58;12.10;99.90
3564;DHT22;1796;52.388;13.096;2023-04-08T13:05:25;11.70;99.90
3564;DHT22;1796;52.388;13.096;2023-04-08T13:07:52;11.70;99.90
3564;DHT22;1796;52.388;13.096;2023-04-08T13:10:19;11.50;99.90
3564;DHT22;1796;52.388;13.096;2023-04-08T13:12:46;11.50;99.90
3564;DHT22;1796;52.388;13.096;2023-04-08T13:15:14;11.30;99.90
3564;DHT22;1796;52.388;13.096;2023-04-08T13:17:41;11.40;99.90
3564;DHT22;1796;52.388;13.096;2023-04-08T13:20:09;11.70;99.90
3564;DHT22;1796;52.388;13.096;2023-04-08T13:22:36;12.20;99.90
3564;DHT22;1796;52.388;13.096;2023-04-08T13:25:03;12.50;99.90
3564;DHT22;1796;52.388;13.096;2023-04-08T13:27:31;12.80;99.90
3564;DHT22;1796;52.388;13.096;2023-04-08T13:29:58;13.10;99.90
3564;DHT22;1796;52.388;13.096;2023-04-08T13:32:26;13.30;99.90
3564;DHT22;1796;52.388;13.096;2023-04-08T13:34:53;13.30;99.90
3564;DHT22;1796;52.388;13.096;2023-04-08T13:37:20;12.80;99.90
3564;DHT22;1796;52.388;13.096;2023-04-08T13:39:47;12.50;99.90
3564;DHT22;1796;52.388;13.096;2023-04-08T13:42:13;12.00;99.90
3564;DHT22;1796;52.388;13.096;2023-04-08T13:44:40;12.00;99.90
3564;DHT22;1796;52.388;13.096;2023-04-08T13:47:07;11.90;99.90
3564;DHT22;1796;52.388;13.096;2023-04-08T13:49:35;12.00;99.90
3564;DHT22;1796;52.388;13.096;2023-04-08T13:52:02;11.70;99.90
3564;DHT22;1796;52.388;13.096;2023-04-08T13:54:29;12.00;99.90
3564;DHT22;1796;52.388;13.096;2023-04-08T13:56:56;11.90;99.90
3564;DHT22;1796;52.388;13.096;2023-04-08T13:59:23;11.90;99.90
3564;DHT22;1796;52.388;13.096;2023-04-08T14:01:50;11.90;99.90
3564;DHT22;1796;52.388;13.096;2023-04-08T14:04:18;11.80;99.90
3564;DHT22;1796;52.388;13.096;2023-04-08T14:06:47;11.90;99.90
3564;DHT22;1796;52.388;13.096;2023-04-08T14:09:15;12.00;99.90
3564;DHT22;1796;52.388;13.096;2023-04-08T14:11:42;11.80;99.90
3564;DHT22;1796;52.388;13.096;2023-04-08T14:14:09;11.80;99.90
3564;DHT22;1796;52.388;13.096;2023-04-08T14:16:36;11.60;99.90
3564;DHT22;1796;52.388;13.096;2023-04-08T14:19:03;11.70;99.90
3564;DHT22;1796;52.388;13.096;2023-04-08T14:21:30;11.60;99.90
3564;DHT22;1796;52.388;13.096;2023-04-08T14:23:59;11.60;99.90
3564;DHT22;1796;52.388;13.096;2023-04-08T14:26:25;11.60;99.90
3564;DHT22;1796;52.388;13.096;2023-04-08T14:28:52;11.60;99.90
3564;DHT22;1796;52.388;13.096;2023-04-08T14:31:19;11.70;99.90
3564;DHT22;1796;52.388;13.096;2023-04-08T14:33:46;11.90;99.90
3564;DHT22;1796;52.388;13.096;2023-04-08T14:36:13;12.00;99.90
3564;DHT22;1796;52.388;13.096;2023-04-08T14:38:40;12.20;99.90
3564;DHT22;1796;52.388;13.096;2023-04-08T14:41:09;12.20;99.90
3564;DHT22;1796;52.388;13.096;2023-04-08T14:43:36;12.50;99.90
3564;DHT22;1796;52.388;13.096;2023-04-08T14:46:03;12.70;99.90
3564;DHT22;1796;52.388;13.096;2023-04-08T14:48:30;12.80;99.90
3564;DHT22;1796;52.388;13.096;2023-04-08T14:50:57;12.80;99.90
3564;DHT22;1796;52.388;13.096;2023-04-08T14:53:24;12.80;99.90
3564;DHT22;1796;52.388;13.096;2023-04-08T14:55:51;12.70;99.90
3564;DHT22;1796;52.388;13.096;2023-04-08T14:58:19;12.50;99.90
3564;DHT22;1796;52.388;13.096;2023-04-08T15:00:46;12.40;99.90
3564;DHT22;1796;52.388;13.096;2023-04-08T15:03:13;12.30;99.90
3564;DHT22;1796;52.388;13.096;2023-04-08T15:05:40;12.00;99.90
3564;DHT22;1796;52.388;13.096;2023-04-08T15:08:09;12.00;99.90
3564;DHT22;1796;52.388;13.096;2023-04-08T15:10:36;12.00;99.90
3564;DHT22;1796;52.388;13.096;2023-04-08T15:13:03;12.00;99.90
3564;DHT22;1796;52.388;13.096;2023-04-08T15:15:31;12.10;99.90
3564;DHT22;1796;52.388;13.096;2023-04-08T15:17:58;12.20;99.90
3564;DHT22;1796;52.388;13.096;2023-04-08T15:20:25;12.30;99.90
3564;DHT22;1796;52.388;13.096;2023-04-08T15:22:52;12.20;99.90
3564;DHT22;1796;52.388;13.096;2023-04-08T15:25:19;12.20;99.90
3564;DHT22;1796;52.388;13.096;2023-04-08T15:27:46;12.10;99.90
3564;DHT22;1796;52.388;13.096;2023-04-08T15:30:13;12.10;99.90
3564;DHT22;1796;52.388;13.096;2023-04-08T15:32:42;12.20;99.90
3564;DHT22;1796;52.388;13.096;2023-04-08T15:35:09;12.20;99.90
3564;DHT22;1796;52.388;13.096;2023-04-08T15:37:36;12.30;99.90
3564;DHT22;1796;52.388;13.096;2023-04-08T15:40:04;12.30;99.90
3564;DHT22;1796;52.388;13.096;2023-04-08T15:42:31;12.50;99.90
3564;DHT22;1796;52.388;13.096;2023-04-08T15:44:58;12.60;99.90
3564;DHT22;1796;52.388;13.096;2023-04-08T15:47:25;12.60;99.90
3564;DHT22;1796;52.388;13.096;2023-04-08T15:49:53;12.40;99.90
3564;DHT22;1796;52.388;13.096;2023-04-08T15:52:21;12.30;99.90
3564;DHT22;1796;52.388;13.096;2023-04-08T15:54:48;12.30;99.90
3564;DHT22;1796;52.388;13.096;2023-04-08T15:57:14;12.40;99.90
3564;DHT22;1796;52.388;13.096;2023-04-08T15:59:41;12.40;99.90
3564;DHT22;1796;52.388;13.096;2023-04-08T16:02:08;12.40;99.90